Time,TemperatureF,DewpointF,PressureIn,WindDirection,WindDirectionDegrees,WindSpeedMPH,WindSpeedGustMPH,Humidity,HourlyPrecipIn,Conditions,Clouds,dailyrainin,SoftwareType,DateUTC
2013-03-27 00:00:00,40.7,23.0,30.20,ESE,113,2.2,3.6,49,0.00,,,0.00,WUHU216HW,2013-03-27 05:00:00,
2013-03-27 00:05:00,40.7,23.0,30.20,East,90,2.9,4.3,49,0.00,,,0.00,WUHU216HW,2013-03-27 05:05:00,
2013-03-27 00:10:00,40.5,22.8,30.20,ESE,113,1.6,4.3,49,0.00,,,0.00,WUHU216HW,2013-03-27 05:10:00,
2013-03-27 00:15:00,40.5,22.8,30.20,ESE,113,1.6,4.0,49,0.00,,,0.00,WUHU216HW,2013-03-27 05:15:00,
2013-03-27 00:20:00,40.5,22.8,30.20,East,90,2.2,2.9,49,0.00,,,0.00,WUHU216HW,2013-03-27 05:20:00,
2013-03-27 00:25:00,40.1,23.0,30.19,ESE,113,3.4,3.4,50,0.00,,,0.00,WUHU216HW,2013-03-27 05:25:00,
2013-03-27 00:30:00,40.0,22.8,30.19,ESE,113,4.0,4.3,50,0.00,,,0.00,WUHU216HW,2013-03-27 05:30:00,
2013-03-27 00:35:00,40.0,22.8,30.20,East,90,2.2,4.3,50,0.00,,,0.00,WUHU216HW,2013-03-27 05:35:00,
2013-03-27 00:40:00,40.0,22.8,30.19,East,90,1.8,3.6,50,0.00,,,0.00,WUHU216HW,2013-03-27 05:40:00,
2013-03-27 00:45:00,40.0,22.8,30.19,East,90,2.2,4.3,50,0.00,,,0.00,WUHU216HW,2013-03-27 05:45:00,
2013-03-27 00:50:00,40.0,22.8,30.19,ESE,113,2.9,4.3,50,0.00,,,0.00,WUHU216HW,2013-03-27 05:50:00,
2013-03-27 00:55:00,39.8,22.6,30.19,ESE,113,1.8,4.3,50,0.00,,,0.00,WUHU216HW,2013-03-27 05:55:00,
2013-03-27 01:00:00,39.8,23.0,30.19,ESE,113,2.5,4.7,51,0.00,,,0.00,WUHU216HW,2013-03-27 06:00:00,
2013-03-27 01:05:00,39.8,23.0,30.19,SE,135,1.3,5.4,51,0.00,,,0.00,WUHU216HW,2013-03-27 06:05:00,
2013-03-27 01:10:00,39.6,22.9,30.19,SE,135,3.4,5.4,51,0.00,,,0.00,WUHU216HW,2013-03-27 06:10:00,
2013-03-27 01:15:00,39.6,22.9,30.19,SE,135,3.4,5.1,51,0.00,,,0.00,WUHU216HW,2013-03-27 06:15:00,
2013-03-27 01:20:00,39.4,22.8,30.19,ESE,113,3.1,5.1,51,0.00,,,0.00,WUHU216HW,2013-03-27 06:20:00,
2013-03-27 01:25:00,39.4,22.8,30.18,ESE,113,2.5,4.3,51,0.00,,,0.00,WUHU216HW,2013-03-27 06:25:00,
2013-03-27 01:30:00,39.4,22.8,30.18,East,90,3.4,4.7,51,0.00,,,0.00,WUHU216HW,2013-03-27 06:30:00,
2013-03-27 01:35:00,39.2,23.1,30.18,East,90,3.4,4.7,52,0.00,,,0.00,WUHU216HW,2013-03-27 06:35:00,
2013-03-27 01:40:00,39.1,22.9,30.17,ESE,113,3.4,5.4,52,0.00,,,0.00,WUHU216HW,2013-03-27 06:40:00,
2013-03-27 01:45:00,39.1,22.9,30.18,ESE,113,3.6,5.4,52,0.00,,,0.00,WUHU216HW,2013-03-27 06:45:00,
2013-03-27 01:46:00,39.1,23.3,30.18,ESE,113,1.8,5.4,53,0.00,,,0.00,WUHU216HW,2013-03-27 06:46:00,
2013-03-27 20:00:00,61.6,32.7,30.02,SE,135,5.6,5.6,34,0.00,,,0.00,WUHU216HW,2013-03-28 01:00:00,
2013-03-27 20:05:00,61.4,32.5,30.02,ESE,113,3.6,7.6,34,0.00,,,0.00,WUHU216HW,2013-03-28 01:05:00,
2013-03-27 20:10:00,61.2,32.4,30.03,ESE,113,3.8,7.6,34,0.00,,,0.00,WUHU216HW,2013-03-28 01:10:00,
2013-03-27 20:15:00,60.8,32.0,30.03,ESE,113,3.6,4.7,34,0.00,,,0.00,WUHU216HW,2013-03-28 01:15:00,
2013-03-27 20:20:00,60.7,32.6,30.03,ESE,113,7.6,7.6,35,0.00,,,0.00,WUHU216HW,2013-03-28 01:20:00,
2013-03-27 20:25:00,60.3,33.0,30.03,ESE,113,4.9,7.6,36,0.00,,,0.00,WUHU216HW,2013-03-28 01:25:00,
2013-03-27 20:30:00,60.1,32.9,30.03,ESE,113,7.2,8.9,36,0.00,,,0.00,WUHU216HW,2013-03-28 01:30:00,
2013-03-27 20:35:00,60.1,32.9,30.03,ESE,113,3.6,8.9,36,0.00,,,0.00,WUHU216HW,2013-03-28 01:35:00,
2013-03-27 20:40:00,59.9,32.7,30.03,East,90,6.0,7.4,36,0.00,,,0.00,WUHU216HW,2013-03-28 01:40:00,
2013-03-27 20:45:00,59.8,32.6,30.03,SSE,158,3.8,7.4,36,0.00,,,0.00,WUHU216HW,2013-03-28 01:45:00,
2013-03-27 20:50:00,59.6,32.4,30.04,ESE,113,6.3,7.4,36,0.00,,,0.00,WUHU216HW,2013-03-28 01:50:00,
2013-03-27 20:55:00,59.4,32.2,30.04,ESE,113,4.5,7.4,36,0.00,,,0.00,WUHU216HW,2013-03-28 01:55:00,
2013-03-27 21:00:00,59.4,32.9,30.04,ESE,113,4.0,7.2,37,0.00,,,0.00,WUHU216HW,2013-03-28 02:00:00,
2013-03-27 21:05:00,59.2,32.8,30.04,East,90,4.0,6.7,37,0.00,,,0.00,WUHU216HW,2013-03-28 02:05:00,
2013-03-27 21:10:00,59.0,32.7,30.04,SSE,158,4.9,6.9,37,0.00,,,0.00,WUHU216HW,2013-03-28 02:10:00,
2013-03-27 21:15:00,59.0,32.7,30.04,South,180,5.8,7.8,37,0.00,,,0.00,WUHU216HW,2013-03-28 02:15:00,
2013-03-27 21:20:00,59.0,32.7,30.04,ESE,113,3.4,7.8,37,0.00,,,0.00,WUHU216HW,2013-03-28 02:20:00,
2013-03-27 21:25:00,59.0,32.7,30.04,ESE,113,4.7,7.6,37,0.00,,,0.00,WUHU216HW,2013-03-28 02:25:00,
2013-03-27 21:30:00,59.0,32.7,30.04,SSE,158,6.5,8.3,37,0.00,,,0.00,WUHU216HW,2013-03-28 02:30:00,
2013-03-27 21:35:00,58.9,32.5,30.05,SE,135,8.5,8.5,37,0.00,,,0.00,WUHU216HW,2013-03-28 02:35:00,
2013-03-27 21:40:00,58.9,32.5,30.05,South,180,5.4,8.5,37,0.00,,,0.00,WUHU216HW,2013-03-28 02:40:00,
2013-03-27 21:45:00,58.9,32.5,30.05,SE,135,4.5,8.5,37,0.00,,,0.00,WUHU216HW,2013-03-28 02:45:00,
2013-03-27 21:50:00,58.9,32.5,30.05,SE,135,6.3,7.4,37,0.00,,,0.00,WUHU216HW,2013-03-28 02:50:00,
2013-03-27 21:55:00,58.9,32.5,30.05,ESE,113,5.1,8.9,37,0.00,,,0.00,WUHU216HW,2013-03-28 02:55:00,
2013-03-27 22:00:00,58.9,32.5,30.05,ENE,68,6.3,8.9,37,0.00,,,0.00,WUHU216HW,2013-03-28 03:00:00,
2013-03-27 22:05:00,58.9,32.5,30.05,SSE,158,4.3,8.9,37,0.00,,,0.00,WUHU216HW,2013-03-28 03:05:00,
2013-03-27 22:10:00,59.0,32.7,30.05,SE,135,4.0,8.9,37,0.00,,,0.00,WUHU216HW,2013-03-28 03:10:00,
2013-03-27 22:15:00,58.9,31.8,30.05,ESE,113,3.8,8.3,36,0.00,,,0.00,WUHU216HW,2013-03-28 03:15:00,
2013-03-27 22:20:00,58.9,31.8,30.05,SSE,158,4.0,9.2,36,0.00,,,0.00,WUHU216HW,2013-03-28 03:20:00,
2013-03-27 22:25:00,58.7,32.3,30.05,SSE,158,2.2,9.2,37,0.00,,,0.00,WUHU216HW,2013-03-28 03:25:00,
2013-03-27 22:30:00,58.7,32.3,30.05,SE,135,5.1,7.4,37,0.00,,,0.00,WUHU216HW,2013-03-28 03:30:00,
2013-03-27 22:35:00,58.7,32.3,30.05,SE,135,4.0,8.3,37,0.00,,,0.00,WUHU216HW,2013-03-28 03:35:00,
2013-03-27 22:40:00,58.7,32.3,30.06,SE,135,5.4,8.3,37,0.00,,,0.00,WUHU216HW,2013-03-28 03:40:00,
2013-03-27 22:45:00,58.7,32.3,30.06,South,180,6.9,7.6,37,0.00,,,0.00,WUHU216HW,2013-03-28 03:45:00,
2013-03-27 22:50:00,58.5,32.1,30.06,South,180,3.1,7.8,37,0.00,,,0.00,WUHU216HW,2013-03-28 03:50:00,
2013-03-27 22:55:00,58.3,32.0,30.06,South,180,5.6,7.8,37,0.00,,,0.00,WUHU216HW,2013-03-28 03:55:00,
2013-03-27 23:00:00,58.3,32.0,30.06,SE,135,4.7,6.7,37,0.00,,,0.00,WUHU216HW,2013-03-28 04:00:00,
2013-03-27 23:05:00,58.1,32.5,30.06,SSE,158,3.4,6.0,38,0.00,,,0.00,WUHU216HW,2013-03-28 04:05:00,
2013-03-27 23:10:00,58.0,32.4,30.06,SE,135,3.1,5.8,38,0.00,,,0.00,WUHU216HW,2013-03-28 04:10:00,
2013-03-27 23:15:00,57.8,32.2,30.06,ESE,113,4.0,5.4,38,0.00,,,0.00,WUHU216HW,2013-03-28 04:15:00,
2013-03-27 23:20:00,57.6,32.0,30.06,SSE,158,4.7,8.9,38,0.00,,,0.00,WUHU216HW,2013-03-28 04:20:00,
2013-03-27 23:25:00,57.4,31.9,30.06,SE,135,3.8,8.9,38,0.00,,,0.00,WUHU216HW,2013-03-28 04:25:00,
2013-03-27 23:30:00,57.2,32.4,30.06,SE,135,5.1,7.4,39,0.00,,,0.00,WUHU216HW,2013-03-28 04:30:00,
2013-03-27 23:35:00,57.1,32.2,30.06,ESE,113,5.4,6.3,39,0.00,,,0.00,WUHU216HW,2013-03-28 04:35:00,
2013-03-27 23:40:00,56.9,32.1,30.06,South,180,4.0,5.4,39,0.00,,,0.00,WUHU216HW,2013-03-28 04:40:00,
2013-03-27 23:45:00,56.5,31.8,30.06,SSE,158,4.9,5.8,39,0.00,,,0.00,WUHU216HW,2013-03-28 04:45:00,
2013-03-27 23:50:00,56.5,31.8,30.06,SE,135,4.0,5.8,39,0.00,,,0.00,WUHU216HW,2013-03-28 04:50:00,
2013-03-27 23:55:00,56.3,31.6,30.06,South,180,3.4,5.4,39,0.00,,,0.00,WUHU216HW,2013-03-28 04:55:00,